Ana Sayfa
METAR-TAF:

METAR-TAF

Havaalanları :

Derby, Avustralya

Enlem: 17-34-53S, Boylam: 123-49-42E, yükseklik: 91 m

Güncel hava durumu gözlemi

Rapor saat 22:30 UTC de 37 dakika önce yapıldı.
Rüzgar doğudan 5 kt
Sıcaklık 14°C
Nem 94%
Basınç 1014 hPa
Görüş mesafesi 10 km veya daha fazla
8700 ft yükseklikte parçalı bulutlu

METAR: YCIN 092230Z AUTO 10005KT 9999 // SCT087 14/13 Q1014 RF00.0/000.0

Saat: 07:07 (23:07 UTC)

Tahmin

Rapor saat 19:14 UTC de 3 saat ve 53 dakika önce yapıldı.
Ayın 09'si saat 20 UTC'den ayın 10'si saat 08 UTC'ye kadar geçerli Tahmin
Rüzgar değişken yönden 5 kt
Görüş mesafesi 10 km veya daha fazla
1500 m altında bulut yok ve kümülonimbus yok
Ayın 10'si saat 0200 UTC'den
Rüzgar batı/kuzeybatıdan 6 kt
Görüş mesafesi 10 km veya daha fazla
1500 m altında bulut yok ve kümülonimbus yok

TAF: YCIN 091914Z 0920/1008 VRB05KT CAVOK FM100200 30006KT CAVOK

4.000'den fazla havaalanı için hava durumu gözlemleri ve tahminleri (METAR ve TAF raporları).

Kullanılabilir istasyonlar harita üzerinde sarı ve kırmızı noktalarla gösterilir.

İstasyonun adını görmek için fareyi noktanın üzerinde gezdirin.

Sonrasında hava gözlem ve tahminlerini görmek için tıklayın.

Haritayı değiştirmek için: yaklaştırmak için siyah artı işaretli yeşil düğmeye ve uzaklaştırmak için de eksi işaretli düğmeye hızla tıklayın; bitişik haritalar için yeşil okları kullanın.


METAR-TAF: